createdAt,value
2019-01-29T00:00:29.926Z,100831.07
2019-01-29T00:01:33.019Z,100831.07
2019-01-29T00:02:32.622Z,100836.20
2019-01-29T00:03:14.431Z,100830.00
2019-01-29T00:03:50.786Z,100827.56
2019-01-29T00:04:27.995Z,100827.56
2019-01-29T00:05:04.184Z,100827.56
2019-01-29T00:05:40.432Z,100827.56
2019-01-29T00:06:26.143Z,100829.72
2019-01-29T00:07:13.923Z,100829.72
2019-01-29T00:07:50.254Z,100828.06
2019-01-29T00:08:26.685Z,100823.19
2019-01-29T00:09:03.278Z,100824.84
2019-01-29T00:09:39.542Z,100832.59
2019-01-29T00:10:18.532Z,100834.49
2019-01-29T00:10:54.920Z,100835.58
2019-01-29T00:11:31.076Z,100841.78
2019-01-29T00:12:08.909Z,100841.78
2019-01-29T00:12:52.846Z,100834.78
2019-01-29T00:13:29.137Z,100840.44
2019-01-29T00:14:05.440Z,100836.65
2019-01-29T00:14:41.686Z,100833.92
2019-01-29T00:15:19.604Z,100836.59
2019-01-29T00:15:55.769Z,100841.19
2019-01-29T00:16:32.203Z,100840.87
2019-01-29T00:17:08.418Z,100840.87
2019-01-29T00:17:44.822Z,100839.27
2019-01-29T00:18:21.106Z,100835.48
2019-01-29T00:18:57.233Z,100841.91
2019-01-29T00:19:33.651Z,100841.91
2019-01-29T00:20:12.352Z,100843.20
2019-01-29T00:20:48.724Z,100843.20
2019-01-29T00:21:26.447Z,100844.01
2019-01-29T00:22:02.819Z,100850.20
2019-01-29T00:22:39.060Z,100852.84
2019-01-29T00:23:15.334Z,100849.63
2019-01-29T00:23:51.574Z,100854.77
2019-01-29T00:24:27.778Z,100854.77
2019-01-29T00:25:04.146Z,100856.89
2019-01-29T00:25:40.519Z,100864.22
2019-01-29T00:26:17.968Z,100864.22
2019-01-29T00:26:55.447Z,100868.47
2019-01-29T00:27:31.774Z,100867.43
2019-01-29T00:28:09.132Z,100867.43
2019-01-29T00:28:45.382Z,100873.09
2019-01-29T00:29:23.003Z,100872.52
2019-01-29T00:29:59.155Z,100864.22
2019-01-29T00:30:35.346Z,100876.82
2019-01-29T00:31:11.733Z,100878.42
2019-01-29T00:31:51.810Z,100880.06
2019-01-29T00:32:29.521Z,100882.77
2019-01-29T00:33:08.943Z,100884.12
2019-01-29T00:33:45.327Z,100884.89
2019-01-29T00:34:23.563Z,100886.23
2019-01-29T00:34:59.861Z,100892.19
2019-01-29T00:35:37.384Z,100893.77
2019-01-29T00:36:13.602Z,100893.77
2019-01-29T00:36:50.886Z,100893.48
2019-01-29T00:37:32.558Z,100892.09
2019-01-29T00:38:11.021Z,100894.80
2019-01-29T00:38:48.113Z,100898.24
2019-01-29T00:39:25.811Z,100896.44
2019-01-29T00:40:02.206Z,100896.44
2019-01-29T00:40:38.426Z,100906.31
2019-01-29T00:41:15.851Z,100906.31
2019-01-29T00:41:58.256Z,100908.72
2019-01-29T00:42:36.060Z,100909.78
2019-01-29T00:43:12.446Z,100900.37
2019-01-29T00:43:50.040Z,100911.94
2019-01-29T00:44:29.419Z,100911.94
2019-01-29T00:45:07.697Z,100914.93
2019-01-29T00:45:44.260Z,100917.63
2019-01-29T00:46:20.424Z,100917.63
2019-01-29T00:47:02.725Z,100914.64
2019-01-29T00:47:45.193Z,100915.45
2019-01-29T00:48:21.463Z,100920.50
2019-01-29T00:48:59.338Z,100920.50
2019-01-29T00:49:37.328Z,100914.61
2019-01-29T00:50:14.903Z,100921.91
2019-01-29T00:50:51.266Z,100925.13
2019-01-29T00:51:28.791Z,100925.13
2019-01-29T00:52:06.607Z,100929.69
2019-01-29T00:52:46.220Z,100926.44
2019-01-29T00:53:22.544Z,100927.22
2019-01-29T00:54:06.654Z,100918.83
2019-01-29T00:54:44.352Z,100930.38
2019-01-29T00:55:20.630Z,100926.03
2019-01-29T00:55:56.933Z,100929.80
2019-01-29T00:56:34.511Z,100930.34
2019-01-29T00:57:14.014Z,100928.16
2019-01-29T00:57:51.119Z,100931.34
2019-01-29T00:58:27.306Z,100931.34
2019-01-29T00:59:03.581Z,100930.53
2019-01-29T00:59:41.251Z,100932.59
2019-01-29T01:00:30.983Z,100936.06
2019-01-29T01:01:07.659Z,100938.73
2019-01-29T01:01:47.033Z,100938.73
2019-01-29T01:02:29.679Z,100945.92
2019-01-29T01:03:06.186Z,100951.84
2019-01-29T01:03:42.719Z,100951.84
2019-01-29T01:04:22.091Z,100947.50
2019-01-29T01:04:58.160Z,100952.86
2019-01-29T01:05:34.616Z,100957.69
2019-01-29T01:06:10.821Z,100957.69
2019-01-29T01:06:48.181Z,100947.17
2019-01-29T01:07:27.514Z,100952.02
2019-01-29T01:08:05.487Z,100959.48
2019-01-29T01:08:41.855Z,100959.48
2019-01-29T01:09:22.622Z,100958.56
2019-01-29T01:09:58.905Z,100958.78
2019-01-29T01:10:47.129Z,100958.78
2019-01-29T01:11:23.355Z,100956.38
2019-01-29T01:11:59.768Z,100967.66
2019-01-29T01:12:35.880Z,100959.55
2019-01-29T01:13:13.599Z,100959.55
2019-01-29T01:13:50.023Z,100977.22
2019-01-29T01:14:26.348Z,100977.22
2019-01-29T01:15:04.343Z,100969.36
2019-01-29T01:15:40.613Z,100968.27
2019-01-29T01:16:16.992Z,100980.90
2019-01-29T01:16:53.379Z,100975.74
2019-01-29T01:17:29.750Z,100978.66
2019-01-29T01:18:07.287Z,100982.72
2019-01-29T01:18:43.467Z,100982.72
2019-01-29T01:19:19.802Z,100975.44
2019-01-29T01:19:56.053Z,100981.02
2019-01-29T01:20:32.268Z,100977.22
2019-01-29T01:21:08.491Z,100973.50
2019-01-29T01:21:46.185Z,100983.73
2019-01-29T01:22:24.827Z,100978.66
2019-01-29T01:23:01.147Z,100978.66
2019-01-29T01:23:37.559Z,100979.72
2019-01-29T01:24:16.632Z,100987.45
2019-01-29T01:24:52.986Z,100986.69
2019-01-29T01:25:35.625Z,100982.89
2019-01-29T01:26:13.236Z,100988.00
2019-01-29T01:26:49.647Z,100986.91
2019-01-29T01:27:25.929Z,100991.26
2019-01-29T01:28:03.785Z,100986.91
2019-01-29T01:28:41.495Z,100987.45
2019-01-29T01:29:17.884Z,100990.38
2019-01-29T01:29:54.106Z,100991.69
2019-01-29T01:30:31.502Z,100986.83
2019-01-29T01:31:07.740Z,100990.33
2019-01-29T01:31:43.942Z,100991.97
2019-01-29T01:32:20.300Z,100983.06
2019-01-29T01:32:56.549Z,100986.31
2019-01-29T01:33:34.238Z,100989.83
2019-01-29T01:34:10.465Z,100990.92
2019-01-29T01:34:46.669Z,100986.65
2019-01-29T01:35:23.033Z,100988.55
2019-01-29T01:35:59.324Z,100989.14
2019-01-29T01:36:39.490Z,100989.18
2019-01-29T01:37:15.840Z,100988.59
2019-01-29T01:37:52.255Z,100989.39
2019-01-29T01:38:28.480Z,100988.30
2019-01-29T01:39:08.010Z,100990.41
2019-01-29T01:39:44.331Z,100986.61
2019-01-29T01:40:27.158Z,100991.43
2019-01-29T01:41:04.506Z,100990.58
2019-01-29T01:41:44.926Z,100990.58
2019-01-29T01:42:21.218Z,100990.79
2019-01-29T01:42:57.350Z,100985.97
2019-01-29T01:43:33.531Z,100987.58
2019-01-29T01:44:10.157Z,100986.48
2019-01-29T01:44:48.949Z,100978.86
2019-01-29T01:45:26.563Z,100977.34
2019-01-29T01:46:04.169Z,100987.20
2019-01-29T01:46:43.000Z,100983.09
2019-01-29T01:47:23.208Z,100986.30
2019-01-29T01:48:00.696Z,100982.75
2019-01-29T01:48:36.983Z,100984.05
2019-01-29T01:49:14.749Z,100982.70
2019-01-29T01:50:11.834Z,100982.10
2019-01-29T01:50:48.169Z,100972.13
2019-01-29T01:51:25.832Z,100972.13
2019-01-29T01:52:02.160Z,100979.52
2019-01-29T01:52:39.905Z,100976.20
2019-01-29T01:53:17.245Z,100984.83
2019-01-29T01:53:53.485Z,100977.20
2019-01-29T01:54:29.757Z,100979.09
2019-01-29T01:55:09.217Z,100977.64
2019-01-29T01:55:46.848Z,100981.70
2019-01-29T01:56:55.229Z,100984.66
2019-01-29T01:57:33.070Z,100979.20
2019-01-29T01:58:09.510Z,100982.62
2019-01-29T01:58:47.158Z,100981.52
2019-01-29T01:59:24.750Z,100981.95
2019-01-29T02:00:00.898Z,100986.02
2019-01-29T02:00:55.826Z,100985.62
2019-01-29T02:01:33.108Z,100985.27
2019-01-29T02:02:10.613Z,100977.17
2019-01-29T02:02:51.951Z,100982.41
2019-01-29T02:03:28.318Z,100978.44
2019-01-29T02:04:04.801Z,100980.91
2019-01-29T02:04:41.266Z,100983.14
2019-01-29T02:05:20.101Z,100988.18
2019-01-29T02:05:56.504Z,100980.16
2019-01-29T02:06:32.958Z,100980.53
2019-01-29T02:07:10.893Z,100982.85
2019-01-29T02:07:48.302Z,100984.03
2019-01-29T02:08:25.658Z,100986.56
2019-01-29T02:09:04.026Z,100984.06
2019-01-29T02:09:40.452Z,100987.52
2019-01-29T02:10:38.111Z,100990.42
2019-01-29T02:11:35.554Z,100988.63
2019-01-29T02:12:18.747Z,100993.63
2019-01-29T02:12:55.368Z,100994.48
2019-01-29T02:13:31.751Z,100997.44
2019-01-29T02:14:11.429Z,100999.30
2019-01-29T02:14:49.337Z,101000.45
2019-01-29T02:15:26.603Z,100997.33
2019-01-29T02:16:12.267Z,101004.55
2019-01-29T02:16:48.519Z,101001.70
2019-01-29T02:17:25.989Z,101010.52
2019-01-29T02:18:02.394Z,101001.25
2019-01-29T02:18:39.473Z,101006.44
2019-01-29T02:19:15.832Z,101011.55
2019-01-29T02:19:53.174Z,101006.89
2019-01-29T02:20:35.630Z,101012.77
2019-01-29T02:21:14.794Z,101015.60
2019-01-29T02:21:50.887Z,101017.87
2019-01-29T02:22:27.249Z,101017.80
2019-01-29T02:23:08.101Z,101021.45
2019-01-29T02:23:44.486Z,101024.59
2019-01-29T02:24:22.191Z,101025.49
2019-01-29T02:26:46.270Z,101027.37
2019-01-29T02:27:22.367Z,101032.19
2019-01-29T02:27:58.713Z,101036.70
2019-01-29T02:28:34.832Z,101024.88
2019-01-29T02:29:10.889Z,101027.45
2019-01-29T02:29:47.256Z,101038.00
2019-01-29T02:30:24.863Z,101031.88
2019-01-29T02:31:00.919Z,101034.91
2019-01-29T02:31:37.147Z,101037.77
2019-01-29T02:32:13.364Z,101033.56
2019-01-29T02:32:49.718Z,101034.82
2019-01-29T02:33:25.833Z,101036.53
2019-01-29T02:34:01.992Z,101031.73
2019-01-29T02:34:38.301Z,101038.11
2019-01-29T02:35:14.517Z,101044.80
2019-01-29T02:35:51.185Z,101043.58
2019-01-29T02:36:27.295Z,101044.73
2019-01-29T02:37:03.562Z,101046.47
2019-01-29T02:37:39.915Z,101045.48
2019-01-29T02:38:16.465Z,101054.89
2019-01-29T02:38:52.762Z,101057.08
2019-01-29T02:39:29.333Z,101055.27
2019-01-29T02:40:06.913Z,101053.48
2019-01-29T02:40:42.979Z,101053.05
2019-01-29T02:41:19.085Z,101054.85
2019-01-29T02:41:55.138Z,101059.61
2019-01-29T02:42:31.283Z,101058.84
2019-01-29T02:43:07.428Z,101057.23
2019-01-29T02:43:43.922Z,101053.78
2019-01-29T02:44:20.757Z,101064.95
2019-01-29T02:44:56.929Z,101060.63
2019-01-29T02:45:33.060Z,101059.33
2019-01-29T02:46:09.235Z,101055.32
2019-01-29T02:46:45.358Z,101064.58
2019-01-29T02:47:21.522Z,101062.42
2019-01-29T02:47:57.741Z,101062.72
2019-01-29T02:48:34.203Z,101064.95
2019-01-29T02:49:10.544Z,101063.90
2019-01-29T02:49:46.833Z,101066.09
2019-01-29T02:50:23.227Z,101061.55
2019-01-29T02:50:59.355Z,101062.66
2019-01-29T02:51:35.381Z,101064.38
2019-01-29T02:52:11.908Z,101064.19
2019-01-29T02:52:48.874Z,101062.83
2019-01-29T02:53:24.939Z,101066.41
2019-01-29T02:54:00.928Z,101057.72
2019-01-29T02:54:37.076Z,101058.82
2019-01-29T02:55:13.738Z,101061.53
2019-01-29T02:55:49.883Z,101058.27
2019-01-29T02:56:26.037Z,101058.20
2019-01-29T02:57:02.419Z,101056.85
2019-01-29T02:57:38.563Z,101056.55
2019-01-29T02:58:14.645Z,101060.62
2019-01-29T02:58:50.798Z,101059.75
2019-01-29T02:59:26.861Z,101063.52
2019-01-29T03:00:02.938Z,101062.97
2019-01-29T03:00:39.279Z,101061.05
2019-01-29T03:01:15.630Z,101059.45
2019-01-29T03:01:51.940Z,101059.20
2019-01-29T03:02:28.078Z,101060.00
2019-01-29T03:03:04.440Z,101061.36
2019-01-29T03:03:40.698Z,101062.72
2019-01-29T03:04:16.839Z,101061.36
2019-01-29T03:04:53.462Z,101058.34
2019-01-29T03:05:30.382Z,101064.27
2019-01-29T03:06:07.023Z,101059.33
2019-01-29T03:06:43.068Z,101057.97
2019-01-29T03:07:19.077Z,101055.26
2019-01-29T03:07:55.202Z,101059.61
2019-01-29T03:08:31.297Z,101054.42
2019-01-29T03:09:10.281Z,101048.72
2019-01-29T03:09:46.302Z,101045.94
2019-01-29T03:10:26.544Z,101047.30
2019-01-29T03:11:02.820Z,101049.15
2019-01-29T03:11:39.057Z,101046.99
2019-01-29T03:12:15.169Z,101044.22
2019-01-29T03:12:51.320Z,101043.91
2019-01-29T03:13:27.503Z,101044.65
2019-01-29T03:14:03.695Z,101042.98
2019-01-29T03:14:40.077Z,101043.47
2019-01-29T03:15:19.100Z,101041.25
2019-01-29T03:15:55.204Z,101039.03
2019-01-29T03:16:31.409Z,101038.72
2019-01-29T03:17:07.517Z,101036.80
2019-01-29T03:17:43.636Z,101038.16
2019-01-29T03:18:19.732Z,101035.97
2019-01-29T03:18:57.012Z,101038.16
2019-01-29T03:19:33.279Z,101035.45
2019-01-29T03:20:10.382Z,101035.45
2019-01-29T03:20:46.478Z,101037.91
2019-01-29T03:21:22.879Z,101037.91
2019-01-29T03:21:58.995Z,101040.39
2019-01-29T03:22:35.776Z,101034.71
2019-01-29T03:23:12.154Z,101034.47
2019-01-29T03:23:48.240Z,101032.37
2019-01-29T03:24:24.490Z,101033.23
2019-01-29T03:25:01.068Z,101031.13
2019-01-29T03:25:37.176Z,101028.79
2019-01-29T03:26:13.299Z,101030.27
2019-01-29T03:26:49.626Z,101027.37
2019-01-29T03:27:25.870Z,101025.83
2019-01-29T03:28:01.978Z,101022.06
2019-01-29T03:28:38.166Z,101024.53
2019-01-29T03:29:14.300Z,101021.81
2019-01-29T03:29:50.574Z,101024.28
2019-01-29T03:30:27.192Z,101021.33
2019-01-29T03:31:03.922Z,101015.65
2019-01-29T03:31:40.004Z,101017.00
2019-01-29T03:32:16.118Z,101020.77
2019-01-29T03:32:52.292Z,101014.54
2019-01-29T03:33:28.578Z,101014.05
2019-01-29T03:34:04.564Z,101011.88
2019-01-29T03:34:40.733Z,101012.44
2019-01-29T03:35:16.949Z,101008.12
2019-01-29T03:35:53.118Z,101010.59
2019-01-29T03:36:29.347Z,101000.05
2019-01-29T03:37:05.386Z,101004.11
2019-01-29T03:37:41.624Z,101001.95
2019-01-29T03:38:17.717Z,100998.12
2019-01-29T03:38:53.695Z,101001.34
2019-01-29T03:39:29.787Z,100995.91
2019-01-29T03:40:07.493Z,101004.30
2019-01-29T03:40:43.676Z,100998.56
2019-01-29T03:41:19.899Z,100995.54
2019-01-29T03:41:56.077Z,100999.61
2019-01-29T03:42:32.223Z,101000.35
2019-01-29T03:43:08.373Z,100995.41
2019-01-29T03:43:44.678Z,100993.11
2019-01-29T03:44:21.732Z,100993.13
2019-01-29T03:44:57.809Z,100991.15
2019-01-29T03:45:33.988Z,100991.15
2019-01-29T03:46:10.109Z,100986.44
2019-01-29T03:46:46.304Z,100990.55
2019-01-29T03:47:22.430Z,100986.95
2019-01-29T03:47:58.694Z,100991.24
2019-01-29T03:48:34.929Z,100988.28
2019-01-29T03:49:11.515Z,100984.84
2019-01-29T03:49:47.646Z,100982.44
2019-01-29T03:50:24.446Z,100984.59
2019-01-29T03:51:00.679Z,100980.63
2019-01-29T03:51:36.807Z,100979.58
2019-01-29T03:52:12.897Z,100980.28
2019-01-29T03:52:49.232Z,100982.20
2019-01-29T03:53:25.500Z,100977.08
2019-01-29T03:54:01.522Z,100974.67
2019-01-29T03:54:37.641Z,100972.27
2019-01-29T03:55:14.122Z,100978.81
2019-01-29T03:55:50.265Z,100978.81
2019-01-29T03:56:26.319Z,100975.02
2019-01-29T03:57:02.460Z,100970.42
2019-01-29T03:57:39.570Z,100972.06
2019-01-29T03:58:15.766Z,100974.58
2019-01-29T03:58:53.141Z,100966.42
2019-01-29T03:59:29.289Z,100971.61
2019-01-29T04:00:06.255Z,100968.79
2019-01-29T04:00:42.613Z,100971.75
2019-01-29T04:01:18.844Z,100970.15
2019-01-29T04:01:55.626Z,100966.08
2019-01-29T04:02:31.908Z,100966.88
2019-01-29T04:03:08.081Z,100965.76
2019-01-29T04:03:44.147Z,100963.53
2019-01-29T04:04:20.106Z,100966.98
2019-01-29T04:04:56.320Z,100960.70
2019-01-29T04:05:32.615Z,100966.08
2019-01-29T04:06:08.690Z,100963.31
2019-01-29T04:06:44.808Z,100963.25
2019-01-29T04:07:20.858Z,100958.06
2019-01-29T04:07:56.907Z,100961.26
2019-01-29T04:08:32.957Z,100963.34
2019-01-29T04:09:11.008Z,100957.84
2019-01-29T04:09:47.448Z,100956.66
2019-01-29T04:10:23.727Z,100957.42
2019-01-29T04:10:59.878Z,100955.42
2019-01-29T04:11:36.146Z,100958.00
2019-01-29T04:12:12.536Z,100952.91
2019-01-29T04:12:48.727Z,100954.28
2019-01-29T04:13:24.873Z,100952.81
2019-01-29T04:14:01.216Z,100948.73
2019-01-29T04:14:37.353Z,100951.38
2019-01-29T04:15:15.489Z,100955.54
2019-01-29T04:15:51.723Z,100948.45
2019-01-29T04:16:27.821Z,100952.58
2019-01-29T04:17:05.405Z,100952.90
2019-01-29T04:17:41.631Z,100949.37
2019-01-29T04:18:17.721Z,100952.18
2019-01-29T04:18:53.987Z,100957.94
2019-01-29T04:19:30.376Z,100955.22
2019-01-29T04:20:06.967Z,100950.50
2019-01-29T04:20:43.363Z,100954.69
2019-01-29T04:21:19.450Z,100946.45
2019-01-29T04:21:55.753Z,100947.16
2019-01-29T04:22:32.018Z,100948.91
2019-01-29T04:23:08.215Z,100944.66
2019-01-29T04:23:47.701Z,100948.02
2019-01-29T04:24:22.169Z,100951.37
2019-01-29T04:24:58.285Z,100952.83
2019-01-29T04:26:27.566Z,100944.02
2019-01-29T04:27:03.914Z,100948.23
2019-01-29T04:27:40.040Z,100942.83
2019-01-29T04:28:16.208Z,100944.66
2019-01-29T04:28:52.543Z,100940.08
2019-01-29T04:29:28.789Z,100942.53
2019-01-29T04:30:05.008Z,100936.38
2019-01-29T04:30:41.244Z,100935.86
2019-01-29T04:31:17.294Z,100932.63
2019-01-29T04:31:53.439Z,100933.48
2019-01-29T04:32:29.677Z,100931.73
2019-01-29T04:33:05.926Z,100934.86
2019-01-29T04:33:41.970Z,100928.66
2019-01-29T04:34:18.312Z,100930.40
2019-01-29T04:34:54.634Z,100927.48
2019-01-29T04:35:30.733Z,100925.48
2019-01-29T04:36:07.678Z,100928.49
2019-01-29T04:36:43.742Z,100921.81
2019-01-29T04:37:19.996Z,100919.41
2019-01-29T04:37:56.016Z,100921.62
2019-01-29T04:38:32.259Z,100921.45
2019-01-29T04:39:10.219Z,100919.09
2019-01-29T04:39:46.621Z,100916.77
2019-01-29T04:40:23.064Z,100918.16
2019-01-29T04:40:59.960Z,100916.93
2019-01-29T04:41:35.956Z,100906.92
2019-01-29T04:42:12.258Z,100909.88
2019-01-29T04:42:48.514Z,100903.95
2019-01-29T04:43:24.753Z,100900.16
2019-01-29T04:44:00.888Z,100908.91
2019-01-29T04:44:37.495Z,100904.75
2019-01-29T04:45:14.556Z,100904.02
2019-01-29T04:45:50.890Z,100902.20
2019-01-29T04:46:27.094Z,100907.75
2019-01-29T04:47:03.252Z,100903.52
2019-01-29T04:47:39.289Z,100902.59
2019-01-29T04:48:15.409Z,100902.78
2019-01-29T04:48:51.558Z,100899.19
2019-01-29T04:49:28.344Z,100897.36
2019-01-29T04:50:04.495Z,100898.67
2019-01-29T04:50:40.765Z,100901.73
2019-01-29T04:51:16.893Z,100898.73
2019-01-29T04:51:53.242Z,100905.77
2019-01-29T04:52:29.303Z,100903.67
2019-01-29T04:53:05.240Z,100898.85
2019-01-29T04:53:41.227Z,100898.14
2019-01-29T04:54:17.354Z,100896.97
2019-01-29T04:54:53.483Z,100896.50
2019-01-29T04:55:29.596Z,100895.23
2019-01-29T04:56:05.782Z,100896.36
2019-01-29T04:56:41.809Z,100892.36
2019-01-29T04:57:18.168Z,100891.66
2019-01-29T04:57:54.204Z,100888.94
2019-01-29T04:58:30.260Z,100894.62
2019-01-29T04:59:06.284Z,100885.79
2019-01-29T04:59:42.524Z,100888.60
2019-01-29T05:00:21.361Z,100887.16
2019-01-29T05:00:57.448Z,100881.94
2019-01-29T05:01:33.612Z,100885.45
2019-01-29T05:02:09.906Z,100881.47
2019-01-29T05:02:45.934Z,100881.70
2019-01-29T05:03:22.211Z,100883.53
2019-01-29T05:03:58.207Z,100878.55
2019-01-29T05:04:34.537Z,100878.79
2019-01-29T05:05:12.099Z,100876.95
2019-01-29T05:05:48.093Z,100875.59
2019-01-29T05:06:24.403Z,100877.20
2019-01-29T05:07:00.534Z,100877.20
2019-01-29T05:07:36.674Z,100874.23
2019-01-29T05:08:12.805Z,100871.84
2019-01-29T05:08:49.041Z,100877.85
2019-01-29T05:09:25.290Z,100875.78
2019-01-29T05:10:01.389Z,100872.59
2019-01-29T05:10:37.867Z,100868.27
2019-01-29T05:11:13.949Z,100867.14
2019-01-29T05:11:50.204Z,100874.75
2019-01-29T05:12:26.280Z,100875.08
2019-01-29T05:13:02.568Z,100870.56
2019-01-29T05:13:38.717Z,100871.04
2019-01-29T05:14:14.806Z,100866.86
2019-01-29T05:14:51.089Z,100863.24
2019-01-29T05:15:27.358Z,100862.34
2019-01-29T05:16:03.331Z,100859.53
2019-01-29T05:16:39.391Z,100860.56
2019-01-29T05:17:15.423Z,100864.55
2019-01-29T05:17:51.635Z,100863.42
2019-01-29T05:18:27.983Z,100861.44
2019-01-29T05:19:04.374Z,100862.73
2019-01-29T05:19:41.178Z,100861.27
2019-01-29T05:20:19.444Z,100856.86
2019-01-29T05:20:55.713Z,100860.84
2019-01-29T05:21:31.840Z,100854.27
2019-01-29T05:22:08.035Z,100860.98
2019-01-29T05:22:44.392Z,100857.59
2019-01-29T05:23:20.646Z,100854.77
2019-01-29T05:24:06.448Z,100856.60
2019-01-29T05:24:34.684Z,100851.64
2019-01-29T05:25:11.307Z,100854.37
2019-01-29T05:25:47.389Z,100858.69
2019-01-29T05:26:23.538Z,100853.58
2019-01-29T05:26:59.851Z,100855.73
2019-01-29T05:27:36.020Z,100845.40
2019-01-29T05:28:12.673Z,100852.77
2019-01-29T05:28:48.804Z,100850.69
2019-01-29T05:29:25.078Z,100852.94
2019-01-29T05:30:01.184Z,100849.19
2019-01-29T05:30:37.279Z,100850.08
2019-01-29T05:31:13.414Z,100848.02
2019-01-29T05:31:49.512Z,100848.58
2019-01-29T05:32:26.019Z,100845.39
2019-01-29T05:33:02.216Z,100844.28
2019-01-29T05:33:38.369Z,100846.21
2019-01-29T05:34:14.676Z,100842.12
2019-01-29T05:34:50.986Z,100847.58
2019-01-29T05:35:27.200Z,100846.45
2019-01-29T05:36:03.458Z,100841.86
2019-01-29T05:36:40.181Z,100840.27
2019-01-29T05:37:16.250Z,100841.16
2019-01-29T05:37:52.420Z,100846.84
2019-01-29T05:38:28.657Z,100840.77
2019-01-29T05:39:08.216Z,100839.23
2019-01-29T05:39:44.256Z,100841.16
2019-01-29T05:40:21.476Z,100834.34
2019-01-29T05:40:57.984Z,100832.98
2019-01-29T05:41:34.157Z,100831.15
2019-01-29T05:42:10.359Z,100832.05
2019-01-29T05:42:46.626Z,100835.90
2019-01-29T05:43:22.762Z,100828.85
2019-01-29T05:43:58.803Z,100831.81
2019-01-29T05:44:34.917Z,100832.94
2019-01-29T05:45:13.689Z,100837.45
2019-01-29T05:45:49.804Z,100829.06
2019-01-29T05:46:25.924Z,100823.19
2019-01-29T05:47:02.010Z,100820.56
2019-01-29T05:47:38.134Z,100827.37
2019-01-29T05:48:14.232Z,100825.20
2019-01-29T05:48:50.234Z,100825.45
2019-01-29T05:49:26.768Z,100820.00
2019-01-29T05:50:03.013Z,100821.31
2019-01-29T05:50:39.311Z,100827.80
2019-01-29T05:51:15.451Z,100817.45
2019-01-29T05:51:51.587Z,100819.71
2019-01-29T05:52:27.595Z,100822.77
2019-01-29T05:53:03.804Z,100815.69
2019-01-29T05:53:40.340Z,100812.47
2019-01-29T05:54:16.730Z,100816.41
2019-01-29T05:54:52.994Z,100818.47
2019-01-29T05:55:29.133Z,100822.56
2019-01-29T05:56:05.429Z,100811.99
2019-01-29T05:56:41.580Z,100807.34
2019-01-29T05:57:18.235Z,100813.92
2019-01-29T05:57:55.005Z,100810.07
2019-01-29T05:58:32.000Z,100806.55
2019-01-29T05:59:08.143Z,100814.39
2019-01-29T05:59:44.315Z,100801.01
2019-01-29T06:00:27.520Z,100810.74
2019-01-29T06:01:03.806Z,100800.65
2019-01-29T06:01:40.021Z,100804.50
2019-01-29T06:02:16.353Z,100806.33
2019-01-29T06:02:52.883Z,100805.91
2019-01-29T06:03:29.149Z,100803.19
2019-01-29T06:04:05.540Z,100806.37
2019-01-29T06:04:41.826Z,100802.77
2019-01-29T06:05:18.224Z,100799.15
2019-01-29T06:05:54.336Z,100798.02
2019-01-29T06:06:30.834Z,100796.00
2019-01-29T06:07:07.723Z,100806.70
2019-01-29T06:07:43.757Z,100801.25
2019-01-29T06:08:19.829Z,100802.45
2019-01-29T06:08:56.053Z,100796.81
2019-01-29T06:09:32.243Z,100802.30
2019-01-29T06:10:09.261Z,100796.63
2019-01-29T06:10:46.269Z,100794.70
2019-01-29T06:11:23.631Z,100795.50
2019-01-29T06:11:59.680Z,100791.41
2019-01-29T06:12:36.059Z,100788.12
2019-01-29T06:13:12.222Z,100787.55
2019-01-29T06:13:48.347Z,100788.35
2019-01-29T06:14:24.472Z,100785.86
2019-01-29T06:15:00.607Z,100789.61
2019-01-29T06:15:36.693Z,100792.57
2019-01-29T06:16:12.928Z,100784.06
2019-01-29T06:16:49.071Z,100790.34
2019-01-29T06:17:27.546Z,100790.34
2019-01-29T06:18:03.235Z,100781.34
2019-01-29T06:18:39.364Z,100784.36
2019-01-29T06:19:15.500Z,100783.23
2019-01-29T06:19:52.048Z,100779.61
2019-01-29T06:20:29.025Z,100779.18
2019-01-29T06:21:05.376Z,100772.00
2019-01-29T06:21:41.743Z,100771.00
2019-01-29T06:22:17.969Z,100772.73
2019-01-29T06:22:54.099Z,100770.59
2019-01-29T06:23:30.259Z,100769.37
2019-01-29T06:24:06.907Z,100771.12
2019-01-29T06:24:42.980Z,100769.19
2019-01-29T06:25:19.314Z,100768.06
2019-01-29T06:25:55.361Z,100760.68
2019-01-29T06:26:31.528Z,100764.64
2019-01-29T06:27:07.610Z,100766.00
2019-01-29T06:27:44.030Z,100764.53
2019-01-29T06:28:20.320Z,100759.55
2019-01-29T06:28:56.603Z,100764.20
2019-01-29T06:29:32.886Z,100754.89
2019-01-29T06:30:10.463Z,100759.78
2019-01-29T06:30:46.704Z,100762.63
2019-01-29T06:31:22.935Z,100759.34
2019-01-29T06:31:59.144Z,100749.92
2019-01-29T06:32:35.972Z,100757.44
2019-01-29T06:33:12.074Z,100755.28
2019-01-29T06:33:48.496Z,100756.53
2019-01-29T06:34:24.730Z,100756.77
2019-01-29T06:35:00.986Z,100752.91
2019-01-29T06:35:37.048Z,100750.95
2019-01-29T06:36:13.393Z,100753.32
2019-01-29T06:36:51.022Z,100746.84
2019-01-29T06:37:27.306Z,100749.44
2019-01-29T06:38:03.568Z,100742.16
2019-01-29T06:38:39.720Z,100739.44
2019-01-29T06:39:15.874Z,100743.19
2019-01-29T06:39:52.082Z,100739.33
2019-01-29T06:40:29.418Z,100743.32
2019-01-29T06:41:06.079Z,100738.79
2019-01-29T06:41:42.422Z,100737.89
2019-01-29T06:42:18.618Z,100740.28
2019-01-29T06:42:54.880Z,100734.08
2019-01-29T06:43:31.125Z,100732.05
2019-01-29T06:44:07.260Z,100731.75
2019-01-29T06:44:43.421Z,100727.55
2019-01-29T06:45:20.802Z,100726.66
2019-01-29T06:45:57.425Z,100729.44
2019-01-29T06:46:33.566Z,100726.48
2019-01-29T06:47:09.862Z,100727.41
2019-01-29T06:47:46.351Z,100729.12
2019-01-29T06:48:22.471Z,100725.47
2019-01-29T06:48:58.622Z,100722.63
2019-01-29T06:49:35.571Z,100727.39
2019-01-29T06:50:14.247Z,100724.42
2019-01-29T06:50:50.397Z,100724.72
2019-01-29T06:51:26.493Z,100723.23
2019-01-29T06:52:02.804Z,100721.20
2019-01-29T06:52:39.028Z,100716.86
2019-01-29T06:53:15.125Z,100718.91
2019-01-29T06:53:51.277Z,100720.95
2019-01-29T06:54:34.000Z,100718.17
2019-01-29T06:55:06.661Z,100715.06
2019-01-29T06:55:42.889Z,100714.92
2019-01-29T06:56:19.262Z,100714.00
2019-01-29T06:56:55.447Z,100712.61
2019-01-29T06:57:31.767Z,100708.01
2019-01-29T06:58:08.043Z,100710.70
2019-01-29T06:58:44.385Z,100708.88
2019-01-29T06:59:20.593Z,100706.83
2019-01-29T06:59:56.763Z,100704.91
2019-01-29T07:00:33.744Z,100708.99
2019-01-29T07:01:09.995Z,100707.17
2019-01-29T07:01:46.171Z,100701.92
2019-01-29T07:02:22.294Z,100701.69
2019-01-29T07:02:58.744Z,100696.11
2019-01-29T07:03:34.904Z,100699.73
2019-01-29T07:04:11.019Z,100698.70
2019-01-29T07:04:47.019Z,100693.19
2019-01-29T07:05:23.230Z,100694.98